createdAt,value
2023-02-14T00:00:02.744Z,8.00
2023-02-14T00:02:52.672Z,7.30
2023-02-14T00:05:41.393Z,6.80
2023-02-14T00:08:29.943Z,7.10
2023-02-14T00:11:18.426Z,7.50
2023-02-14T00:14:25.023Z,7.60
2023-02-14T00:17:13.611Z,7.60
2023-02-14T00:20:03.610Z,8.00
2023-02-14T00:22:52.213Z,8.10
2023-02-14T00:25:40.740Z,8.30
2023-02-14T00:28:29.220Z,8.40
2023-02-14T00:31:17.737Z,8.50
2023-02-14T00:34:07.100Z,8.50
2023-02-14T00:36:57.151Z,8.50
2023-02-14T00:39:45.687Z,8.30
2023-02-14T00:42:34.229Z,8.30
2023-02-14T00:45:22.711Z,8.20
2023-02-14T00:48:11.498Z,8.10
2023-02-14T00:51:00.422Z,8.10
2023-02-14T00:53:51.619Z,8.10
2023-02-14T00:59:28.941Z,7.60
2023-02-14T01:02:17.448Z,7.70
2023-02-14T01:05:06.634Z,7.90
2023-02-14T01:07:55.292Z,8.00
2023-02-14T01:10:45.737Z,8.20
2023-02-14T01:13:34.298Z,8.10
2023-02-14T01:16:25.569Z,7.40
2023-02-14T01:19:14.172Z,7.50
2023-02-14T01:22:02.576Z,7.60
2023-02-14T01:24:51.685Z,7.70
2023-02-14T01:27:41.575Z,7.40
2023-02-14T01:30:30.290Z,6.90
2023-02-14T01:33:18.869Z,6.90
2023-02-14T01:36:08.409Z,7.10
2023-02-14T01:38:58.498Z,6.70
2023-02-14T01:41:49.111Z,6.80
2023-02-14T01:45:00.892Z,6.60
2023-02-14T01:47:53.427Z,6.40
2023-02-14T01:50:45.646Z,6.20
2023-02-14T01:53:34.568Z,6.40
2023-02-14T01:56:28.790Z,6.50
2023-02-14T01:59:22.070Z,5.90
2023-02-14T02:02:12.382Z,5.60
2023-02-14T02:05:01.092Z,5.50
2023-02-14T02:07:49.914Z,5.10
2023-02-14T02:10:38.499Z,4.80
2023-02-14T02:13:27.039Z,4.80
2023-02-14T02:16:28.024Z,4.80
2023-02-14T02:20:02.565Z,5.00
2023-02-14T02:23:45.033Z,4.90
2023-02-14T02:27:08.808Z,5.00
2023-02-14T02:30:34.888Z,5.00
2023-02-14T02:34:08.820Z,4.90
2023-02-14T02:37:10.346Z,4.80
2023-02-14T02:40:11.965Z,4.90
2023-02-14T02:43:08.417Z,5.20
2023-02-14T02:46:20.712Z,5.50
2023-02-14T02:49:38.529Z,5.90
2023-02-14T02:52:54.803Z,5.70
2023-02-14T02:56:03.402Z,5.30
2023-02-14T02:58:55.815Z,5.70
2023-02-14T03:01:44.522Z,5.90
2023-02-14T03:04:53.307Z,5.60
2023-02-14T03:07:45.397Z,5.60
2023-02-14T03:10:39.042Z,5.40
2023-02-14T03:13:39.945Z,5.30
2023-02-14T03:16:39.689Z,5.50
2023-02-14T03:20:00.701Z,5.50
2023-02-14T03:23:02.280Z,5.10
2023-02-14T03:26:00.864Z,5.10
2023-02-14T03:28:54.820Z,5.20
2023-02-14T03:31:54.494Z,5.20
2023-02-14T03:34:54.294Z,5.60
2023-02-14T03:37:49.135Z,6.20
2023-02-14T03:40:43.781Z,6.60
2023-02-14T03:43:34.924Z,6.60
2023-02-14T03:46:27.962Z,6.70
2023-02-14T03:49:19.724Z,6.80
2023-02-14T03:52:10.949Z,7.00
2023-02-14T03:55:01.146Z,7.10
2023-02-14T03:57:57.033Z,7.30
2023-02-14T04:00:48.595Z,7.40
2023-02-14T04:03:40.848Z,7.20
2023-02-14T04:06:29.461Z,7.00
2023-02-14T04:09:18.016Z,6.60
2023-02-14T04:12:07.334Z,6.60
2023-02-14T04:14:57.340Z,6.70
2023-02-14T04:18:03.353Z,7.00
2023-02-14T04:20:51.955Z,7.10
2023-02-14T04:23:40.474Z,7.20
2023-02-14T04:26:29.128Z,7.30
2023-02-14T04:29:17.617Z,7.30
2023-02-14T04:32:09.170Z,7.30
2023-02-14T04:34:57.778Z,7.30
2023-02-14T04:37:46.774Z,7.00
2023-02-14T04:40:35.320Z,7.00
2023-02-14T04:46:12.561Z,6.40
2023-02-14T04:49:02.515Z,6.40
2023-02-14T04:51:51.065Z,6.40
2023-02-14T04:54:39.696Z,6.20
2023-02-14T04:57:28.290Z,5.80
2023-02-14T05:00:17.596Z,5.80
2023-02-14T05:03:06.114Z,4.90
2023-02-14T05:05:55.930Z,4.20
2023-02-14T05:08:44.520Z,3.90
2023-02-14T05:11:33.178Z,3.70
2023-02-14T05:14:21.888Z,3.90
2023-02-14T05:17:10.430Z,4.20
2023-02-14T05:19:59.026Z,4.50
2023-02-14T05:22:49.074Z,4.90
2023-02-14T05:25:37.628Z,4.90
2023-02-14T05:28:26.245Z,4.90
2023-02-14T05:31:15.030Z,5.20
2023-02-14T05:34:03.931Z,5.50
2023-02-14T05:36:52.462Z,5.70
2023-02-14T05:39:42.421Z,5.90
2023-02-14T05:42:31.014Z,5.90
2023-02-14T05:45:19.752Z,5.60
2023-02-14T05:48:08.274Z,5.70
2023-02-14T05:50:56.811Z,5.50
2023-02-14T05:53:45.393Z,5.30
2023-02-14T05:56:35.309Z,4.90
2023-02-14T05:59:23.979Z,4.70
2023-02-14T06:02:14.218Z,4.70
2023-02-14T06:05:02.893Z,4.40
2023-02-14T06:07:52.354Z,4.60
2023-02-14T06:10:40.952Z,4.60
2023-02-14T06:13:31.090Z,4.80
2023-02-14T06:16:19.842Z,4.90
2023-02-14T06:19:08.454Z,4.50
2023-02-14T06:21:57.010Z,4.00
2023-02-14T06:24:45.795Z,4.30
2023-02-14T06:27:34.857Z,4.30
2023-02-14T06:30:25.588Z,4.80
2023-02-14T06:33:14.190Z,5.00
2023-02-14T06:36:02.753Z,5.30
2023-02-14T06:38:51.311Z,5.20
2023-02-14T06:41:39.794Z,4.50
2023-02-14T06:44:28.345Z,4.20
2023-02-14T06:50:08.621Z,4.00
2023-02-14T06:52:57.230Z,4.30
2023-02-14T06:55:45.762Z,4.50
2023-02-14T06:58:34.327Z,4.50
2023-02-14T07:01:22.993Z,4.30
2023-02-14T07:04:12.940Z,4.60
2023-02-14T07:07:01.493Z,5.10
2023-02-14T07:09:50.095Z,5.00
2023-02-14T07:12:39.643Z,4.70
2023-02-14T07:15:28.460Z,4.50
2023-02-14T07:18:16.998Z,4.40
2023-02-14T07:21:07.344Z,4.40
2023-02-14T07:23:55.823Z,4.30
2023-02-14T07:26:44.411Z,4.60
2023-02-14T07:29:32.869Z,4.70
2023-02-14T07:32:21.442Z,4.90
2023-02-14T07:35:10.779Z,4.90
2023-02-14T07:38:00.657Z,4.90
2023-02-14T07:40:49.211Z,5.10
2023-02-14T07:43:38.883Z,5.10
2023-02-14T07:46:27.503Z,5.30
2023-02-14T07:49:16.309Z,5.40
2023-02-14T07:52:06.007Z,5.30
2023-02-14T07:54:55.961Z,5.50
2023-02-14T07:57:44.508Z,5.60
2023-02-14T08:00:33.091Z,5.90
2023-02-14T08:03:21.632Z,6.00
2023-02-14T08:06:10.332Z,6.20
2023-02-14T08:08:58.911Z,6.60
2023-02-14T08:12:06.177Z,6.90
2023-02-14T08:14:54.745Z,7.30
2023-02-14T08:17:43.534Z,7.70
2023-02-14T08:20:32.109Z,7.60
2023-02-14T08:23:21.706Z,7.60
2023-02-14T08:26:10.736Z,7.80
2023-02-14T08:29:02.316Z,8.00
2023-02-14T08:34:40.001Z,8.80
2023-02-14T08:37:28.522Z,8.70
2023-02-14T08:40:17.042Z,9.10
2023-02-14T08:43:05.939Z,9.40
2023-02-14T08:45:55.987Z,9.60
2023-02-14T08:48:44.634Z,9.90
2023-02-14T08:51:33.181Z,10.40
2023-02-14T08:54:21.703Z,10.90
2023-02-14T08:57:10.355Z,11.30
2023-02-14T08:59:58.941Z,11.20
2023-02-14T09:02:52.021Z,11.20
2023-02-14T09:05:40.658Z,11.20
2023-02-14T09:08:29.773Z,11.00
2023-02-14T09:11:22.123Z,11.10
2023-02-14T09:14:10.874Z,11.00
2023-02-14T09:17:01.503Z,11.10
2023-02-14T09:19:51.465Z,10.90
2023-02-14T09:22:40.497Z,10.70
2023-02-14T09:25:28.981Z,10.70
2023-02-14T09:28:17.434Z,10.90
2023-02-14T09:31:11.945Z,11.10
2023-02-14T09:34:18.355Z,11.40
2023-02-14T09:37:08.260Z,11.60
2023-02-14T09:39:56.821Z,11.80
2023-02-14T09:43:01.867Z,12.00
2023-02-14T09:45:55.802Z,12.10
2023-02-14T09:48:48.111Z,12.20
2023-02-14T09:51:38.226Z,12.20
2023-02-14T09:54:29.516Z,12.40
2023-02-14T09:57:26.545Z,12.50
2023-02-14T10:00:22.417Z,12.60
2023-02-14T10:03:50.121Z,12.80
2023-02-14T10:06:49.264Z,13.00
2023-02-14T10:09:59.125Z,13.10
2023-02-14T10:12:52.188Z,13.20
2023-02-14T10:15:44.758Z,13.30
2023-02-14T10:18:39.627Z,13.40
2023-02-14T10:21:32.975Z,13.50
2023-02-14T10:24:27.131Z,13.70
2023-02-14T10:30:16.453Z,13.90
2023-02-14T10:33:09.225Z,14.00
2023-02-14T10:36:02.762Z,14.10
2023-02-14T10:39:02.711Z,14.30
2023-02-14T10:41:55.916Z,14.50
2023-02-14T10:44:55.984Z,14.50
2023-02-14T10:47:51.368Z,14.60
2023-02-14T10:50:48.019Z,14.70
2023-02-14T10:53:43.061Z,14.70
2023-02-14T10:56:39.193Z,15.00
2023-02-14T10:59:34.376Z,15.30
2023-02-14T11:02:27.852Z,15.40
2023-02-14T11:05:26.888Z,15.40
2023-02-14T11:08:26.386Z,15.60
2023-02-14T11:11:21.381Z,15.70
2023-02-14T11:14:26.153Z,15.90
2023-02-14T11:17:31.530Z,15.70
2023-02-14T11:20:30.359Z,15.80
2023-02-14T11:23:25.219Z,15.90
2023-02-14T11:26:21.527Z,15.70
2023-02-14T11:29:14.889Z,16.00
2023-02-14T11:32:16.913Z,16.30
2023-02-14T11:35:09.333Z,16.60
2023-02-14T11:37:59.143Z,16.80
2023-02-14T11:40:55.809Z,17.00
2023-02-14T11:43:45.716Z,17.50
2023-02-14T11:46:44.292Z,17.40
2023-02-14T11:49:39.618Z,17.40
2023-02-14T11:52:30.152Z,17.20
2023-02-14T11:55:27.964Z,17.30
2023-02-14T11:58:32.160Z,17.30
2023-02-14T12:01:25.727Z,17.40
2023-02-14T12:04:18.859Z,17.60
2023-02-14T12:07:20.609Z,17.70
2023-02-14T12:10:23.986Z,17.70
2023-02-14T12:13:25.643Z,17.70
2023-02-14T12:16:27.463Z,17.60
2023-02-14T12:22:08.362Z,18.00
2023-02-14T12:25:07.583Z,18.20
2023-02-14T12:28:04.203Z,18.40
2023-02-14T12:30:52.872Z,18.60
2023-02-14T12:36:46.091Z,18.60
2023-02-14T12:39:40.934Z,18.70
2023-02-14T12:42:43.888Z,18.80
2023-02-14T12:48:47.190Z,19.00
2023-02-14T12:51:44.032Z,19.00
2023-02-14T12:54:55.449Z,19.10
2023-02-14T12:57:51.009Z,19.10
2023-02-14T13:00:52.530Z,19.20
2023-02-14T13:04:01.136Z,19.30
2023-02-14T13:06:52.843Z,19.50
2023-02-14T13:09:50.364Z,19.60
2023-02-14T13:12:46.962Z,19.60
2023-02-14T13:15:43.652Z,19.50
2023-02-14T13:18:45.037Z,19.50
2023-02-14T13:21:38.226Z,19.50
2023-02-14T13:24:30.907Z,19.60
2023-02-14T13:27:22.564Z,19.70
2023-02-14T13:30:19.662Z,19.50
2023-02-14T13:33:19.594Z,19.70
2023-02-14T13:36:12.292Z,19.70
2023-02-14T13:39:01.233Z,19.80
2023-02-14T13:41:49.794Z,19.90
2023-02-14T13:44:46.465Z,19.90
2023-02-14T13:47:34.907Z,19.90
2023-02-14T13:50:25.080Z,19.80
2023-02-14T13:53:14.010Z,19.90
2023-02-14T13:56:04.178Z,20.00
2023-02-14T13:58:55.882Z,20.00
2023-02-14T14:01:48.178Z,20.10
2023-02-14T14:04:38.667Z,19.90
2023-02-14T14:07:31.385Z,19.70
2023-02-14T14:10:44.896Z,19.60
2023-02-14T14:13:56.023Z,19.50
2023-02-14T14:16:58.602Z,19.40
2023-02-14T14:19:47.736Z,19.20
2023-02-14T14:22:48.627Z,19.20
2023-02-14T14:45:37.243Z,18.70
2023-02-14T14:48:31.917Z,18.60
2023-02-14T14:51:25.984Z,18.40
2023-02-14T14:54:19.122Z,18.30
2023-02-14T14:57:15.100Z,18.30
2023-02-14T15:37:40.978Z,17.20
2023-02-14T15:40:32.304Z,17.10
2023-02-14T15:43:33.173Z,16.50
2023-02-14T15:49:22.288Z,16.10
2023-02-14T15:55:02.680Z,15.60
2023-02-14T15:57:56.760Z,15.50
2023-02-14T16:00:45.674Z,15.40
2023-02-14T16:03:37.156Z,15.30
2023-02-14T16:06:36.864Z,15.20
2023-02-14T16:09:28.526Z,15.00
2023-02-14T16:12:32.497Z,15.00
2023-02-14T16:15:22.797Z,14.90
2023-02-14T16:18:19.965Z,14.90
2023-02-14T16:21:18.064Z,14.70
2023-02-14T16:24:14.225Z,14.80
2023-02-14T16:27:06.913Z,14.70
2023-02-14T16:29:55.407Z,14.60
2023-02-14T18:03:20.344Z,12.50
2023-02-14T18:06:11.954Z,12.30
2023-02-14T18:09:00.581Z,11.70
2023-02-14T18:11:50.388Z,11.40
2023-02-14T18:14:38.839Z,11.40
2023-02-14T18:17:28.109Z,11.50
2023-02-14T18:20:16.637Z,11.50
2023-02-14T18:23:07.272Z,11.20
2023-02-14T18:25:57.872Z,11.10
2023-02-14T18:28:46.659Z,11.00
2023-02-14T18:31:36.597Z,11.00
2023-02-14T18:34:25.232Z,10.80
2023-02-14T18:37:15.195Z,10.60
2023-02-14T18:40:05.213Z,10.50
2023-02-14T18:42:53.659Z,10.50
2023-02-14T18:45:42.189Z,10.30
2023-02-14T18:48:31.679Z,10.20
2023-02-14T18:51:22.550Z,10.20
2023-02-14T18:54:11.225Z,10.40
2023-02-14T18:57:01.020Z,10.50
2023-02-14T18:59:49.478Z,10.60
2023-02-14T19:02:38.277Z,10.70
2023-02-14T19:05:27.106Z,10.80
2023-02-14T19:08:15.728Z,10.80
2023-02-14T19:11:04.683Z,10.70
2023-02-14T19:13:56.612Z,10.70
2023-02-14T19:16:50.421Z,10.60
2023-02-14T19:22:27.893Z,10.10
2023-02-14T19:25:16.332Z,9.90
2023-02-14T19:28:06.465Z,10.00
2023-02-14T19:31:00.093Z,10.10
2023-02-14T19:33:49.377Z,10.20
2023-02-14T19:36:37.940Z,10.00
2023-02-14T19:39:29.369Z,9.70
2023-02-14T19:42:17.803Z,9.60
2023-02-14T19:45:07.579Z,9.70
2023-02-14T19:47:59.329Z,9.80
2023-02-14T19:50:47.861Z,9.80
2023-02-14T19:53:36.905Z,9.80
2023-02-14T19:56:27.342Z,9.80
2023-02-14T19:59:20.238Z,9.80
2023-02-14T20:02:15.043Z,9.90
2023-02-14T20:05:05.428Z,10.00
2023-02-14T20:07:55.431Z,10.00
2023-02-14T20:10:44.153Z,9.80
2023-02-14T20:13:32.588Z,9.80
2023-02-14T20:16:21.093Z,9.80
2023-02-14T20:19:12.813Z,9.70
2023-02-14T20:22:03.116Z,9.20
2023-02-14T20:24:52.387Z,9.10
2023-02-14T20:27:40.840Z,9.30
2023-02-14T20:30:29.369Z,9.10
2023-02-14T20:33:18.262Z,8.90
2023-02-14T20:36:08.076Z,8.80
2023-02-14T20:38:58.591Z,8.90
2023-02-14T20:41:49.960Z,9.20
2023-02-14T20:44:39.017Z,9.20
2023-02-14T20:47:28.654Z,9.20
2023-02-14T20:50:17.340Z,9.30
2023-02-14T20:53:05.853Z,9.30
2023-02-14T20:55:55.692Z,9.20
2023-02-14T20:58:44.327Z,9.10
2023-02-14T21:01:32.885Z,9.10
2023-02-14T21:04:22.384Z,8.90
2023-02-14T21:07:11.294Z,8.50
2023-02-14T21:10:00.546Z,8.00
2023-02-14T21:12:52.838Z,7.70
2023-02-14T21:15:41.450Z,7.70
2023-02-14T21:18:30.687Z,7.50
2023-02-14T21:21:21.707Z,7.50
2023-02-14T21:24:14.703Z,7.50
2023-02-14T21:27:05.030Z,7.60
2023-02-14T21:29:55.135Z,7.70
2023-02-14T21:32:43.555Z,7.80
2023-02-14T21:35:34.118Z,7.90
2023-02-14T21:38:22.957Z,7.90
2023-02-14T21:41:13.479Z,7.80
2023-02-14T21:44:02.900Z,7.70
2023-02-14T21:46:53.013Z,7.60
2023-02-14T21:49:58.981Z,7.80
2023-02-14T21:52:47.453Z,7.90
2023-02-14T21:55:37.820Z,8.00
2023-02-14T21:58:26.254Z,7.80
2023-02-14T22:01:17.956Z,7.90
2023-02-14T22:04:09.834Z,8.00
2023-02-14T22:06:58.369Z,7.90
2023-02-14T22:09:47.411Z,7.90
2023-02-14T22:12:35.910Z,8.00
2023-02-14T22:15:24.888Z,7.80
2023-02-14T22:18:13.331Z,7.80
2023-02-14T22:21:04.415Z,8.00
2023-02-14T22:23:52.966Z,8.10
2023-02-14T22:26:41.743Z,8.20
2023-02-14T22:29:30.238Z,8.20
2023-02-14T22:32:18.806Z,8.30
2023-02-14T22:35:08.048Z,8.40
2023-02-14T22:37:58.001Z,8.40
2023-02-14T22:40:46.520Z,8.40
2023-02-14T22:43:35.339Z,8.50
2023-02-14T22:46:26.491Z,8.50
2023-02-14T22:49:15.577Z,8.40
2023-02-14T22:52:04.126Z,8.40
2023-02-14T22:54:54.872Z,8.50
2023-02-14T22:57:43.325Z,8.20
2023-02-14T23:00:32.810Z,8.00
2023-02-14T23:03:21.353Z,7.70
2023-02-14T23:06:09.942Z,7.70
2023-02-14T23:08:58.947Z,7.70
2023-02-14T23:11:49.208Z,8.00
2023-02-14T23:14:55.011Z,7.90
2023-02-14T23:18:00.829Z,7.90
2023-02-14T23:21:07.154Z,7.80
2023-02-14T23:23:55.634Z,7.80
2023-02-14T23:26:44.197Z,7.50
2023-02-14T23:29:34.466Z,7.50
2023-02-14T23:32:23.228Z,7.60
2023-02-14T23:35:12.022Z,7.60
2023-02-14T23:38:00.539Z,7.50
2023-02-14T23:41:06.471Z,7.50
2023-02-14T23:43:54.939Z,7.50
2023-02-14T23:46:44.946Z,7.40
2023-02-14T23:49:35.636Z,7.20
2023-02-14T23:52:24.226Z,7.40
2023-02-14T23:55:13.090Z,7.80
2023-02-14T23:58:01.931Z,8.10
